Time;durP1;ratioP1;P1;durP2;ratioP2;P2;SDS_P1;SDS_P2;PMS_P1;PMS_P2;Temp;Humidity;BMP_temperature;BMP_pressure;BME280_temperature;BME280_humidity;BME280_pressure;Samples;Min_cycle;Max_cycle;Signal;HPM_P1;HPM_P2
2022/09/27 00:00:08;;;;;;;31.68;21.85;;;;;;;12.59;99.22;93391.33;1698074;84;21202;-59
2022/09/27 00:02:42;;;;;;;34.98;21.30;;;;;;;12.58;98.60;93394.56;1697758;84;20996;-58
2022/09/27 00:05:10;;;;;;;39.00;20.77;;;;;;;12.55;98.88;93391.42;1647936;84;21104;-59
2022/09/27 00:07:39;;;;;;;62.67;36.48;;;;;;;12.60;99.17;93394.83;1697336;83;21001;-59
2022/09/27 00:10:08;;;;;;;65.05;39.98;;;;;;;12.66;98.81;93400.52;1697816;84;21081;-58
2022/09/27 00:12:37;;;;;;;44.15;29.20;;;;;;;12.69;98.31;93399.52;1697752;84;21239;-59
2022/09/27 00:15:06;;;;;;;36.20;24.70;;;;;;;12.67;97.85;93390.98;1697974;84;20968;-60
2022/09/27 00:17:35;;;;;;;28.75;19.15;;;;;;;12.64;97.68;93385.69;1697544;83;21429;-59
2022/09/27 00:20:03;;;;;;;26.85;19.90;;;;;;;12.64;97.70;93380.17;1697891;84;21505;-59
2022/09/27 00:22:31;;;;;;;30.68;19.27;;;;;;;12.63;97.51;93382.19;1697954;84;21056;-59
2022/09/27 00:25:00;;;;;;;36.45;21.57;;;;;;;12.62;97.63;93375.78;1697652;84;21814;-57
2022/09/27 00:27:29;;;;;;;36.95;23.47;;;;;;;12.57;97.55;93370.98;1697725;84;21010;-59
2022/09/27 00:29:57;;;;;;;45.45;24.15;;;;;;;12.53;97.79;93377.36;1697757;84;21489;-58
2022/09/27 00:32:25;;;;;;;35.88;23.42;;;;;;;12.51;97.83;93377.10;1697601;84;21490;-60
2022/09/27 00:34:54;;;;;;;36.65;24.25;;;;;;;12.50;97.88;93382.49;1698031;84;21041;-58
2022/09/27 00:37:22;;;;;;;31.27;22.17;;;;;;;12.49;98.07;93380.21;1697891;84;21198;-59
2022/09/27 00:39:50;;;;;;;35.45;23.73;;;;;;;12.47;98.10;93375.17;1697822;84;21036;-59
2022/09/27 00:42:19;;;;;;;36.00;24.70;;;;;;;12.44;98.24;93369.27;1697609;84;20994;-58
2022/09/27 00:45:07;;;;;;;60.28;37.53;;;;;;;12.46;98.67;93372.28;1697572;84;21445;-58
2022/09/27 00:47:53;;;;;;;55.35;34.23;;;;;;;12.53;99.16;93361.55;1666739;86;21552;-59
2022/09/27 00:50:36;;;;;;;48.83;30.48;;;;;;;12.59;99.15;93358.84;1646104;86;21347;-59
2022/09/27 00:53:23;;;;;;;37.38;25.08;;;;;;;12.62;98.38;93353.09;1661628;86;21005;-59
2022/09/27 00:55:55;;;;;;;40.03;24.98;;;;;;;12.57;97.69;93344.14;1661723;86;21016;-60
2022/09/27 00:58:32;;;;;;;32.70;22.58;;;;;;;12.58;98.25;93339.39;1661548;85;21488;-59
2022/09/27 01:01:04;;;;;;;35.10;21.95;;;;;;;12.58;98.25;93339.39;1661962;86;21036;-60
2022/09/27 01:04:07;;;;;;;34.33;22.87;;;;;;;12.60;98.05;93346.55;1661703;85;21016;-58
2022/09/27 01:06:37;;;;;;;36.83;24.50;;;;;;;12.59;97.76;93349.18;1661478;85;21008;-59
2022/09/27 01:09:06;;;;;;;48.55;29.25;;;;;;;12.52;97.67;93351.03;1661522;86;21472;-58
2022/09/27 01:12:05;;;;;;;31.23;20.60;;;;;;;12.45;97.93;93350.09;1646344;86;21020;-59
2022/09/27 01:15:12;;;;;;;31.52;22.65;;;;;;;12.41;97.82;93355.73;1661732;85;21087;-59
2022/09/27 01:18:13;;;;;;;39.42;26.20;;;;;;;12.32;98.53;93330.48;1661449;85;21173;-59
2022/09/27 01:21:03;;;;;;;49.53;30.92;;;;;;;12.35;99.10;93326.73;1661511;86;21021;-59
2022/09/27 01:24:10;;;;;;;41.90;27.40;;;;;;;12.28;99.01;93319.54;1643690;86;21022;-59
2022/09/27 01:27:04;;;;;;;47.67;28.62;;;;;;;12.30;99.22;93326.69;1661674;86;21016;-60
2022/09/27 01:29:37;;;;;;;44.75;28.95;;;;;;;12.26;99.20;93320.66;1661589;85;21020;-59
2022/09/27 01:32:11;;;;;;;;;;;;;;;12.26;99.83;93313.12;1663060;86;21148;-58
2022/09/27 01:34:52;;;;;;;35.00;24.75;;;;;;;12.32;100.00;93311.17;1669798;85;20187;-59
2022/09/27 01:37:28;;;;;;;42.90;28.23;;;;;;;12.30;99.94;93312.27;1673973;85;21055;-58
2022/09/27 01:40:17;;;;;;;45.03;27.27;;;;;;;12.30;100.00;93314.28;1674460;85;21020;-58
2022/09/27 01:43:02;;;;;;;38.88;25.77;;;;;;;12.31;100.00;93308.28;1650551;85;21032;-59
2022/09/27 01:45:37;;;;;;;43.95;27.20;;;;;;;12.29;100.00;93303.13;1673070;85;21508;-58
2022/09/27 01:48:17;;;;;;;41.48;25.02;;;;;;;12.27;100.00;93303.60;1673928;85;20968;-58
2022/09/27 01:50:58;;;;;;;;;;;;;;;12.27;100.00;93300.11;1684704;84;21563;-59
2022/09/27 01:53:37;;;;;;;32.55;22.40;;;;;;;12.30;100.00;93308.13;1672501;85;20103;-59
2022/09/27 01:56:32;;;;;;;34.18;23.30;;;;;;;12.32;100.00;93304.89;1672002;84;21598;-58
2022/09/27 01:59:12;;;;;;;28.75;19.67;;;;;;;12.33;100.00;93305.79;1671455;84;21165;-59
2022/09/27 02:01:43;;;;;;;32.13;22.13;;;;;;;12.31;100.00;93301.39;1672306;85;21084;-59
2022/09/27 02:04:12;;;;;;;27.77;20.23;;;;;;;12.30;100.00;93295.72;1672570;85;21023;-59
2022/09/27 02:06:43;;;;;;;36.17;20.77;;;;;;;12.27;100.00;93288.44;1672389;85;21028;-60
2022/09/27 02:09:27;;;;;;;31.37;23.42;;;;;;;12.25;100.00;93284.05;1660455;85;21031;-58
2022/09/27 02:12:01;;;;;;;34.63;23.80;;;;;;;12.24;100.00;93281.80;1670638;85;21286;-58
2022/09/27 02:14:40;;;;;;;35.48;23.62;;;;;;;12.25;100.00;93289.56;1672829;85;21051;-59
2022/09/27 02:17:23;;;;;;;33.25;23.32;;;;;;;12.27;100.00;93289.08;1672691;85;21157;-58
2022/09/27 02:20:28;;;;;;;39.90;27.00;;;;;;;12.21;100.00;93280.77;1672697;85;21011;-58
2022/09/27 02:23:07;;;;;;;42.62;26.52;;;;;;;12.19;100.00;93271.47;1672811;85;21467;-59
2022/09/27 02:25:57;;;;;;;41.75;29.23;;;;;;;12.15;100.00;93274.48;1672449;85;21139;-58
2022/09/27 02:28:51;;;;;;;35.13;24.70;;;;;;;12.13;100.00;93276.97;1682162;83;20964;-58
2022/09/27 02:31:21;;;;;;;35.75;22.82;;;;;;;12.08;100.00;93276.93;1671843;85;21019;-59
2022/09/27 02:33:59;;;;;;;32.65;20.35;;;;;;;12.05;100.00;93271.03;1672360;85;21055;-58
2022/09/27 02:36:28;;;;;;;29.98;22.02;;;;;;;12.03;100.00;93277.02;1672755;85;20964;-57
2022/09/27 02:38:56;;;;;;;32.88;22.13;;;;;;;12.02;100.00;93283.78;1672746;84;21126;-58
2022/09/27 02:41:25;;;;;;;30.70;20.65;;;;;;;12.03;100.00;93272.89;1672635;85;21489;-60
2022/09/27 02:43:56;;;;;;;37.70;23.70;;;;;;;12.05;100.00;93270.39;1672618;85;21015;-58
2022/09/27 02:46:58;;;;;;;25.55;20.10;;;;;;;12.05;100.00;93274.52;1629061;85;21076;-59
2022/09/27 02:49:56;;;;;;;29.60;21.23;;;;;;;12.10;100.00;93275.17;1672408;85;21000;-57
2022/09/27 02:53:07;;;;;;;33.02;20.92;;;;;;;12.19;100.00;93268.71;1676013;84;21200;-63
2022/09/27 02:55:52;;;;;;;27.37;19.52;;;;;;;12.23;100.00;93271.37;1684014;84;21456;-59
2022/09/27 02:58:39;;;;;;;27.98;19.67;;;;;;;12.22;100.00;93258.84;1679988;85;21028;-60
2022/09/27 03:01:48;;;;;;;27.50;19.42;;;;;;;12.26;100.00;93249.70;1671765;85;20968;-59
2022/09/27 03:04:31;;;;;;;28.07;20.45;;;;;;;12.27;100.00;93249.84;1680015;85;21495;-60
2022/09/27 03:07:00;;;;;;;30.10;20.62;;;;;;;12.28;100.00;93245.83;1683739;85;21522;-59
2022/09/27 03:09:44;;;;;;;29.67;20.92;;;;;;;12.29;100.00;93247.98;1681179;85;21027;-57
2022/09/27 03:12:13;;;;;;;33.85;21.52;;;;;;;12.29;100.00;93248.72;1683072;85;21052;-59
2022/09/27 03:14:41;;;;;;;30.57;21.62;;;;;;;12.35;100.00;93248.14;1671546;85;21064;-59
2022/09/27 03:17:11;;;;;;;29.32;20.48;;;;;;;12.37;100.00;93248.39;1680818;85;21041;-58
2022/09/27 03:19:57;;;;;;;30.30;20.43;;;;;;;12.37;100.00;93246.25;1681327;85;21898;-58
2022/09/27 03:22:41;;;;;;;26.85;19.50;;;;;;;12.38;100.00;93245.00;1683174;85;21536;-59
2022/09/27 03:25:10;;;;;;;30.88;19.70;;;;;;;12.41;100.00;93244.77;1638372;85;21103;-59
2022/09/27 03:27:38;;;;;;;28.95;20.05;;;;;;;12.47;100.00;93242.05;1671431;85;21090;-59
2022/09/27 03:30:07;;;;;;;32.60;20.48;;;;;;;12.49;100.00;93246.44;1684023;85;21139;-59
2022/09/27 03:32:39;;;;;;;34.18;24.77;;;;;;;12.41;100.00;93248.91;1681102;85;21912;-59
2022/09/27 03:35:25;;;;;;;38.60;26.62;;;;;;;12.31;99.89;93250.99;1676689;85;20976;-59
2022/09/27 03:37:53;;;;;;;39.35;26.02;;;;;;;12.21;100.00;93243.55;1676531;85;21634;-59
2022/09/27 03:40:21;;;;;;;35.92;23.85;;;;;;;12.20;100.00;93246.17;1651586;85;21076;-59
2022/09/27 03:42:50;;;;;;;37.60;24.90;;;;;;;12.25;100.00;93255.73;1676976;85;21106;-59
2022/09/27 03:45:18;;;;;;;44.83;28.67;;;;;;;12.33;100.00;93259.52;1651416;85;21141;-59
2022/09/27 03:47:47;;;;;;;42.30;26.57;;;;;;;12.37;100.00;93255.29;1676591;85;21102;-59
2022/09/27 03:50:15;;;;;;;34.05;23.75;;;;;;;12.37;100.00;93255.91;1674194;85;21050;-59
2022/09/27 03:52:44;;;;;;;31.20;21.97;;;;;;;12.35;100.00;93249.52;1665568;86;21064;-58
2022/09/27 03:55:13;;;;;;;30.45;21.80;;;;;;;12.31;100.00;93249.00;1664186;86;20986;-58
2022/09/27 03:57:46;;;;;;;33.13;22.77;;;;;;;12.33;100.00;93248.49;1663736;86;21629;-59
2022/09/27 04:00:15;;;;;;;30.45;21.55;;;;;;;12.35;100.00;93244.61;1665787;85;21074;-59
2022/09/27 04:02:43;;;;;;;30.65;20.35;;;;;;;12.34;100.00;93234.83;1664214;86;21087;-59
2022/09/27 04:05:27;;;;;;;27.80;21.12;;;;;;;12.35;100.00;93239.86;1629898;87;21064;-58
2022/09/27 04:07:57;;;;;;;31.97;21.07;;;;;;;12.38;100.00;93244.39;1696352;84;21048;-59
2022/09/27 04:10:27;;;;;;;43.40;27.98;;;;;;;12.39;100.00;93243.14;1697441;84;21228;-58
2022/09/27 04:12:56;;;;;;;39.50;27.07;;;;;;;12.35;100.00;93232.97;1697587;84;20949;-58
2022/09/27 04:15:25;;;;;;;32.93;24.65;;;;;;;12.31;100.00;93235.22;1697900;84;20993;-60
2022/09/27 04:17:53;;;;;;;37.50;23.70;;;;;;;12.25;100.00;93231.66;1697865;84;21108;-58
2022/09/27 04:20:34;;;;;;;34.10;23.15;;;;;;;12.22;100.00;93235.41;1697858;84;21016;-58
2022/09/27 04:23:04;;;;;;;31.80;23.18;;;;;;;12.23;100.00;93234.16;1697856;83;21065;-58
2022/09/27 04:25:33;;;;;;;31.05;22.60;;;;;;;12.27;100.00;93238.07;1697425;84;20997;-59
2022/09/27 04:28:04;;;;;;;31.48;23.00;;;;;;;12.33;100.00;93237.46;1671048;83;21077;-60
2022/09/27 04:30:33;;;;;;;32.75;23.40;;;;;;;12.36;100.00;93237.84;1670537;84;22152;-65
2022/09/27 04:33:13;;;;;;;33.00;21.90;;;;;;;12.38;100.00;93237.49;1697795;84;21052;-60
2022/09/27 04:39:07;;;;;;;38.60;25.02;;;;;;;12.28;100.00;93233.42;1697603;84;21437;-64
2022/09/27 04:41:37;;;;;;;32.75;25.70;;;;;;;12.24;100.00;93235.66;1698157;84;20938;-60
2022/09/27 04:44:06;;;;;;;35.35;26.15;;;;;;;12.20;100.00;93234.38;1670219;84;21033;-60
2022/09/27 04:46:34;;;;;;;31.48;23.18;;;;;;;12.20;100.00;93230.24;1697482;84;21504;-59
2022/09/27 04:49:04;;;;;;;28.20;22.45;;;;;;;12.19;100.00;93232.27;1697539;83;20996;-61
2022/09/27 04:51:35;;;;;;;28.47;22.35;;;;;;;12.19;100.00;93232.87;1702329;84;21466;-59
2022/09/27 04:54:05;;;;;;;34.90;23.50;;;;;;;12.21;100.00;93236.66;1706337;84;21539;-59
2022/09/27 04:56:35;;;;;;;40.08;26.48;;;;;;;12.21;100.00;93232.52;1706907;83;20967;-60
2022/09/27 04:59:04;;;;;;;34.63;24.18;;;;;;;12.19;100.00;93233.64;1683682;84;21530;-62
2022/09/27 05:01:33;;;;;;;35.23;25.52;;;;;;;12.20;100.00;93235.15;1706288;84;21231;-61
2022/09/27 05:04:12;;;;;;;34.65;24.95;;;;;;;12.21;100.00;93232.52;1705193;84;20998;-61
2022/09/27 05:06:40;;;;;;;47.30;28.02;;;;;;;12.19;100.00;93235.02;1706209;83;20995;-61
2022/09/27 05:09:11;;;;;;;37.80;27.35;;;;;;;12.17;100.00;93229.25;1705584;84;21011;-60
2022/09/27 05:11:47;;;;;;;35.43;26.20;;;;;;;12.20;100.00;93227.48;1705464;84;21506;-59
2022/09/27 05:14:20;;;;;;;41.45;27.98;;;;;;;12.27;100.00;93229.80;1670416;84;21345;-60
2022/09/27 05:16:51;;;;;;;38.17;26.57;;;;;;;12.31;100.00;93237.20;1704692;84;21037;-60
2022/09/27 05:19:39;;;;;;;39.63;25.77;;;;;;;12.32;100.00;93233.20;1704852;84;21030;-61
2022/09/27 05:22:16;;;;;;;39.27;25.55;;;;;;;12.34;100.00;93234.22;1714347;83;20979;-59
2022/09/27 05:24:45;;;;;;;31.70;24.00;;;;;;;12.42;100.00;93235.89;1718338;83;21046;-61
2022/09/27 05:27:17;;;;;;;35.30;23.70;;;;;;;12.48;100.00;93233.26;1718589;83;21817;-60
2022/09/27 05:29:44;;;;;;;35.40;24.72;;;;;;;12.52;100.00;93226.14;1718225;83;21006;-62
2022/09/27 05:32:14;;;;;;;43.20;27.80;;;;;;;12.53;100.00;93221.52;1716206;83;22317;-62
2022/09/27 05:34:43;;;;;;;39.58;27.07;;;;;;;12.53;100.00;93229.02;1661343;84;21600;-59
2022/09/27 05:37:12;;;;;;;35.48;25.05;;;;;;;12.49;100.00;93226.48;1645272;86;21718;-62
2022/09/27 05:39:40;;;;;;;36.23;25.75;;;;;;;12.49;100.00;93227.87;1650489;83;21820;-64
2022/09/27 05:42:11;;;;;;;42.73;28.80;;;;;;;12.50;100.00;93229.41;1692961;83;21120;-60
2022/09/27 05:44:39;;;;;;;42.43;30.85;;;;;;;12.53;100.00;93227.03;1667018;84;21554;-63
2022/09/27 05:47:08;;;;;;;46.25;33.05;;;;;;;12.59;100.00;93234.69;1692641;83;21557;-60
2022/09/27 05:49:38;;;;;;;47.10;33.98;;;;;;;12.57;100.00;93230.30;1689200;83;21142;-64
2022/09/27 05:52:06;;;;;;;44.67;33.00;;;;;;;12.52;100.00;93229.66;1694878;83;21357;-61
2022/09/27 05:54:33;;;;;;;39.15;29.42;;;;;;;12.53;100.00;93227.03;1701835;83;21037;-61
2022/09/27 05:57:02;;;;;;;45.43;32.50;;;;;;;12.53;100.00;93218.12;1694156;83;21051;-65
2022/09/27 05:59:37;;;;;;;44.15;32.53;;;;;;;12.48;100.00;93224.25;1693377;83;21055;-61
2022/09/27 06:02:18;;;;;;;41.95;31.57;;;;;;;12.47;100.00;93229.64;1693469;83;21036;-63
2022/09/27 06:05:04;;;;;;;39.75;30.35;;;;;;;12.52;100.00;93230.27;1699361;83;21077;-62
2022/09/27 06:07:41;;;;;;;38.02;26.68;;;;;;;12.57;100.00;93225.52;1684010;83;21050;-61
2022/09/27 06:10:13;;;;;;;44.55;32.63;;;;;;;12.60;100.00;93214.12;1697363;83;20979;-58
2022/09/27 06:12:42;;;;;;;38.75;28.00;;;;;;;12.60;100.00;93221.03;1700719;83;21416;-58
2022/09/27 06:15:11;;;;;;;39.98;25.48;;;;;;;12.64;100.00;93224.30;1698618;83;21618;-60
2022/09/27 06:17:43;;;;;;;28.95;21.90;;;;;;;12.69;100.00;93222.20;1694691;83;21077;-59
2022/09/27 06:20:12;;;;;;;32.60;27.42;;;;;;;12.74;100.00;93217.31;1696645;82;21007;-57
2022/09/27 06:22:40;;;;;;;25.77;20.77;;;;;;;12.83;100.00;93225.35;1691078;83;20995;-61
2022/09/27 06:25:09;;;;;;;30.77;23.52;;;;;;;12.89;100.00;93218.60;1674279;83;21092;-61
2022/09/27 06:27:39;;;;;;;31.27;24.90;;;;;;;12.92;100.00;93212.11;1685414;83;21040;-63
2022/09/27 06:30:11;;;;;;;30.52;24.50;;;;;;;12.94;100.00;93210.98;1696783;83;21501;-59
2022/09/27 06:32:42;;;;;;;28.95;22.27;;;;;;;13.04;100.00;93215.67;1693131;83;21056;-63
2022/09/27 06:35:15;;;;;;;31.12;23.70;;;;;;;13.13;100.00;93219.56;1693640;83;21063;-62
2022/09/27 06:37:44;;;;;;;34.50;27.17;;;;;;;13.18;100.00;93218.80;1661055;84;21065;-62
2022/09/27 06:40:13;;;;;;;30.12;23.47;;;;;;;13.24;100.00;93223.73;1658390;84;21089;-61
2022/09/27 06:42:57;;;;;;;34.00;24.75;;;;;;;13.36;100.00;93229.37;1645270;85;22484;-60
2022/09/27 06:45:27;;;;;;;30.10;21.50;;;;;;;13.46;100.00;93226.50;1633006;85;21107;-60
2022/09/27 06:48:02;;;;;;;25.88;18.45;;;;;;;13.53;100.00;93220.46;1584259;86;21155;-64
2022/09/27 06:50:34;;;;;;;20.80;16.90;;;;;;;13.64;100.00;93217.06;1631463;86;21098;-62
2022/09/27 06:53:04;;;;;;;20.82;18.15;;;;;;;13.69;99.68;93217.72;1635658;85;21050;-62
2022/09/27 06:55:33;;;;;;;22.02;18.15;;;;;;;13.71;99.38;93218.57;1611011;87;22625;-63
2022/09/27 07:00:50;;;;;;;14.93;12.78;;;;;;;13.88;99.33;93224.84;1634172;86;21552;-64
2022/09/27 07:03:31;;;;;;;17.67;12.88;;;;;;;13.97;98.94;93223.95;1631455;86;21146;-64
2022/09/27 07:06:01;;;;;;;13.65;11.93;;;;;;;14.08;98.28;93228.70;1632983;86;21243;-62
2022/09/27 07:08:34;;;;;;;16.82;13.35;;;;;;;14.18;97.37;93226.57;1601259;87;21069;-61
2022/09/27 07:11:06;;;;;;;15.35;11.48;;;;;;;14.23;96.04;93220.91;1632603;86;21141;-61
2022/09/27 07:13:39;;;;;;;14.43;12.63;;;;;;;14.25;95.44;93220.53;1638872;86;21672;-61
2022/09/27 07:16:06;;;;;;;14.18;12.68;;;;;;;14.30;94.91;93218.37;1629793;86;21119;-63
2022/09/27 07:18:35;;;;;;;16.60;12.85;;;;;;;14.37;94.65;93224.76;1631251;86;21061;-63
2022/09/27 07:21:05;;;;;;;41.20;28.57;;;;;;;14.39;93.67;93227.03;1617286;86;21002;-58
2022/09/27 07:23:34;;;;;;;18.20;15.38;;;;;;;14.39;93.12;93225.65;1612096;87;21134;-63
2022/09/27 07:26:03;;;;;;;16.85;14.68;;;;;;;14.43;92.95;93230.41;1637303;86;21033;-65
2022/09/27 07:28:32;;;;;;;16.02;13.78;;;;;;;14.50;92.40;93220.20;1589693;88;21059;-64
2022/09/27 07:31:01;;;;;;;18.25;13.95;;;;;;;14.56;92.37;93219.55;1632833;86;21052;-63
2022/09/27 07:33:30;;;;;;;15.23;13.62;;;;;;;14.61;92.25;93220.15;1646987;86;21150;-60
2022/09/27 07:36:00;;;;;;;19.70;15.05;;;;;;;14.65;92.20;93222.02;1620815;86;21592;-66
2022/09/27 07:38:28;;;;;;;16.97;13.88;;;;;;;14.70;91.63;93212.95;1644773;86;21101;-62
2022/09/27 07:40:58;;;;;;;18.37;14.50;;;;;;;14.77;91.19;93212.41;1639871;87;21543;-64
2022/09/27 07:43:28;;;;;;;14.47;12.93;;;;;;;14.88;90.92;93215.13;1602687;87;21515;-67
2022/09/27 07:45:56;;;;;;;19.87;15.40;;;;;;;15.00;90.57;93217.20;1638505;87;21302;-63
2022/09/27 07:48:27;;;;;;;16.48;14.05;;;;;;;15.08;90.34;93217.53;1602461;87;21378;-66
2022/09/27 07:51:06;;;;;;;15.10;12.35;;;;;;;15.16;89.78;93218.48;1637687;86;21038;-61
2022/09/27 07:53:39;;;;;;;15.13;12.95;;;;;;;15.22;88.73;93217.80;1621378;87;21013;-62
2022/09/27 07:56:25;;;;;;;13.75;11.88;;;;;;;15.26;88.75;93216.92;1685568;84;21553;-59
2022/09/27 07:58:53;;;;;;;19.92;12.68;;;;;;;15.42;88.16;93216.09;1654177;85;21325;-61
2022/09/27 08:01:22;;;;;;;9.50;8.40;;;;;;;15.53;87.93;93210.45;1691450;84;21029;-61
2022/09/27 08:03:49;;;;;;;9.28;8.18;;;;;;;15.67;87.30;93212.11;1684228;84;21532;-61
2022/09/27 08:06:18;;;;;;;8.15;7.35;;;;;;;15.85;86.28;93221.16;1674448;83;21048;-62
2022/09/27 08:08:46;;;;;;;10.53;9.30;;;;;;;15.98;85.23;93220.53;1674479;84;20989;-62
2022/09/27 08:11:16;;;;;;;11.97;10.43;;;;;;;16.02;84.28;93220.38;1684203;84;21198;-62
2022/09/27 08:13:48;;;;;;;10.63;9.55;;;;;;;16.04;84.26;93223.38;1646517;84;21112;-60
2022/09/27 08:16:16;;;;;;;12.45;10.70;;;;;;;16.04;83.74;93213.67;1668031;84;21137;-59
2022/09/27 08:19:03;;;;;;;14.53;11.35;;;;;;;16.07;83.37;93211.89;1631199;86;21073;-62
2022/09/27 08:21:35;;;;;;;14.05;9.75;;;;;;;16.16;83.71;93216.46;1655795;83;21065;-62
2022/09/27 08:24:14;;;;;;;8.75;7.72;;;;;;;16.23;82.59;93211.72;1650764;84;21280;-63
2022/09/27 08:27:06;;;;;;;10.32;8.98;;;;;;;16.24;81.93;93211.09;1668973;84;21149;-64
2022/09/27 08:29:36;;;;;;;12.53;10.18;;;;;;;16.20;81.15;93211.38;1674412;84;21045;-60
2022/09/27 08:32:05;;;;;;;13.55;10.55;;;;;;;16.19;81.64;93204.32;1656681;84;21048;-60
2022/09/27 08:34:33;;;;;;;14.25;10.70;;;;;;;16.26;81.86;93207.89;1674475;84;21116;-65
2022/09/27 08:37:02;;;;;;;12.25;10.80;;;;;;;16.36;81.65;93213.25;1674096;84;22153;-61
2022/09/27 08:39:30;;;;;;;11.15;10.00;;;;;;;16.42;81.70;93209.77;1650820;85;21622;-61
2022/09/27 08:42:16;;;;;;;11.53;10.32;;;;;;;16.49;81.41;93203.00;1652961;85;21001;-62
2022/09/27 08:45:08;;;;;;;8.93;7.47;;;;;;;16.61;81.33;93206.40;1682973;84;21005;-61
2022/09/27 08:47:40;;;;;;;;;;;;;;;16.76;80.66;93199.13;1680705;84;21501;-59
2022/09/27 08:50:26;;;;;;;13.03;11.35;;;;;;;17.05;79.91;93196.11;1674777;84;21105;-59
2022/09/27 08:53:17;;;;;;;10.40;9.28;;;;;;;17.09;79.01;93194.53;1683261;83;22335;-63
2022/09/27 08:55:52;;;;;;;10.90;9.33;;;;;;;17.06;78.10;93188.64;1697471;83;20959;-61
2022/09/27 08:58:35;;;;;;;10.70;8.05;;;;;;;17.13;77.62;93187.30;1697679;83;21227;-60
2022/09/27 09:01:07;;;;;;;7.95;6.95;;;;;;;17.18;77.57;93190.00;1652558;86;21533;-67
2022/09/27 09:03:42;;;;;;;9.45;7.67;;;;;;;17.18;76.93;93183.68;1645966;85;21521;-63
2022/09/27 09:06:48;;;;;;;12.58;10.13;;;;;;;17.27;76.92;93175.71;1597801;87;21153;-62
2022/09/27 09:09:21;;;;;;;12.10;9.53;;;;;;;17.44;77.62;93168.55;1645690;85;21561;-61
2022/09/27 09:15:32;;;;;;;12.73;10.65;;;;;;;17.58;77.21;93171.47;1665867;84;21037;-64
2022/09/27 09:18:42;;;;;;;8.43;7.55;;;;;;;17.58;77.58;93174.25;1675183;84;21239;-62
2022/09/27 09:21:23;;;;;;;9.83;8.38;;;;;;;17.62;77.43;93171.94;1652181;85;21358;-62
2022/09/27 09:24:35;;;;;;;8.50;7.62;;;;;;;17.62;76.37;93170.55;1655317;85;21052;-63
2022/09/27 09:27:37;;;;;;;11.18;9.15;;;;;;;17.65;76.14;93174.39;1612188;87;21086;-65
2022/09/27 09:30:22;;;;;;;8.63;7.75;;;;;;;17.61;76.18;93171.17;1604691;87;21005;-64
2022/09/27 09:33:24;;;;;;;6.95;5.83;;;;;;;17.64;76.59;93158.98;1626261;88;22040;-63
2022/09/27 09:36:00;;;;;;;6.25;4.50;;;;;;;17.71;76.40;93166.72;1638614;86;21073;-65
2022/09/27 09:38:45;;;;;;;5.42;3.70;;;;;;;17.82;76.88;93154.00;1662549;84;21610;-61
2022/09/27 09:41:31;;;;;;;3.85;3.45;;;;;;;18.02;75.94;93151.27;1638462;85;21058;-63
2022/09/27 09:44:21;;;;;;;4.33;3.92;;;;;;;18.22;74.35;93149.98;1664839;84;21122;-65
2022/09/27 09:46:52;;;;;;;5.78;3.90;;;;;;;18.46;74.42;93150.56;1643201;87;21228;-64
2022/09/27 09:49:25;;;;;;;5.00;3.83;;;;;;;18.72;73.44;93147.01;1668219;85;21584;-63
2022/09/27 09:51:56;;;;;;;6.70;3.90;;;;;;;19.21;71.10;93145.95;1656136;85;21077;-65
2022/09/27 09:54:46;;;;;;;4.10;3.27;;;;;;;19.63;69.65;93132.19;1615286;87;21194;-63
2022/09/27 09:57:35;;;;;;;22.05;4.17;;;;;;;19.92;67.14;93142.09;1673565;84;21163;-66
2022/09/27 10:00:14;;;;;;;13.88;4.35;;;;;;;19.88;65.49;93136.12;1643914;85;21271;-65
2022/09/27 10:02:47;;;;;;;4.30;2.92;;;;;;;19.64;64.88;93139.27;1617081;87;21066;-62
2022/09/27 10:05:18;;;;;;;11.28;3.35;;;;;;;19.42;64.99;93137.00;1624603;86;21146;-66
2022/09/27 10:07:49;;;;;;;6.33;4.78;;;;;;;19.17;64.83;93133.00;1673983;84;21016;-64
2022/09/27 10:10:18;;;;;;;9.05;6.50;;;;;;;18.98;65.35;93128.20;1629775;85;20968;-61
2022/09/27 10:12:55;;;;;;;16.20;9.60;;;;;;;19.11;66.81;93128.17;1675699;84;21483;-63
2022/09/27 10:15:28;;;;;;;15.95;4.87;;;;;;;19.60;67.64;93115.11;1673009;84;21631;-61
2022/09/27 10:17:57;;;;;;;9.70;4.10;;;;;;;20.09;65.01;93124.30;1642586;85;21057;-64
2022/09/27 10:20:38;;;;;;;4.25;3.10;;;;;;;20.34;63.39;93115.66;1623250;85;21085;-68
2022/09/27 10:23:21;;;;;;;7.97;4.72;;;;;;;20.23;62.59;93118.07;1635752;86;21098;-64
2022/09/27 10:25:59;;;;;;;20.57;6.12;;;;;;;19.86;63.30;93125.38;1643559;85;21217;-66
2022/09/27 10:28:42;;;;;;;9.23;5.45;;;;;;;19.45;64.58;93119.18;1612848;85;21592;-61
2022/09/27 10:31:16;;;;;;;12.13;5.85;;;;;;;19.16;65.35;93123.77;1663055;85;21043;-60
2022/09/27 10:34:01;;;;;;;25.08;6.90;;;;;;;18.96;66.43;93125.84;1649603;85;21526;-62
2022/09/27 10:36:33;;;;;;;11.43;7.20;;;;;;;18.79;67.01;93116.45;1644832;85;21045;-60
2022/09/27 10:39:04;;;;;;;10.25;7.92;;;;;;;18.62;68.06;93117.45;1664120;85;21114;-64
2022/09/27 10:41:38;;;;;;;8.55;6.92;;;;;;;18.58;69.22;93113.48;1644440;85;21088;-64
2022/09/27 10:44:27;;;;;;;13.48;6.15;;;;;;;18.76;69.35;93116.14;1638787;86;21032;-66
2022/09/27 10:47:03;;;;;;;9.98;5.53;;;;;;;18.88;67.55;93120.20;1653065;85;21081;-63
2022/09/27 10:49:36;;;;;;;11.28;6.58;;;;;;;19.10;66.91;93112.73;1638649;85;21124;-64
2022/09/27 10:52:12;;;;;;;4.87;4.33;;;;;;;19.68;66.01;93107.58;1674381;85;21123;-60
2022/09/27 10:54:40;;;;;;;12.68;4.65;;;;;;;20.45;63.65;93098.56;1632083;85;21065;-67
2022/09/27 10:57:20;;;;;;;4.90;4.00;;;;;;;21.32;61.53;93097.28;1680197;84;21577;-61
2022/09/27 10:59:52;;;;;;;5.65;3.92;;;;;;;22.19;58.95;93093.64;1669756;84;21116;-63
2022/09/27 11:02:35;;;;;;;8.88;6.85;;;;;;;23.00;56.68;93096.17;1693065;84;21033;-65
2022/09/27 11:05:11;;;;;;;11.15;6.08;;;;;;;23.86;53.95;93087.61;1702051;83;22014;-63
2022/09/27 11:07:55;;;;;;;36.40;23.35;;;;;;;24.54;52.49;93090.70;1669484;84;21586;-67
2022/09/27 11:10:30;;;;;;;5.83;3.80;;;;;;;25.13;50.36;93084.99;1628858;86;21065;-60
2022/09/27 11:13:18;;;;;;;7.90;3.12;;;;;;;25.70;47.85;93083.30;1637367;86;21025;-65
2022/09/27 11:16:08;;;;;;;3.50;2.67;;;;;;;26.32;46.26;93084.70;1637884;86;21085;-63
2022/09/27 11:18:44;;;;;;;2.87;1.82;;;;;;;26.88;45.58;93080.52;1628649;86;21237;-65
2022/09/27 11:21:50;;;;;;;13.43;2.72;;;;;;;27.55;43.54;93078.44;1631342;86;21033;-64
2022/09/27 11:24:50;;;;;;;8.13;3.20;;;;;;;28.08;42.39;93077.37;1644790;85;21036;-64
2022/09/27 11:27:31;;;;;;;6.28;3.05;;;;;;;28.73;41.87;93074.08;1629124;87;21100;-67
2022/09/27 11:30:18;;;;;;;3.20;2.72;;;;;;;29.55;40.29;93081.01;1602927;87;21133;-63
2022/09/27 11:33:18;;;;;;;8.15;3.15;;;;;;;30.18;37.68;93077.30;1593159;87;21144;-64
2022/09/27 11:36:09;;;;;;;2.87;0.90;;;;;;;30.66;36.54;93075.34;1679854;84;21556;-67
2022/09/27 11:38:49;;;;;;;9.28;1.07;;;;;;;30.82;32.22;93074.15;1652674;84;21035;-69
2022/09/27 11:41:46;;;;;;;13.95;1.57;;;;;;;30.44;31.74;93069.72;1674568;83;21124;-69
2022/09/27 11:44:37;;;;;;;9.10;1.00;;;;;;;30.17;32.30;93071.56;1673695;85;21052;-62
2022/09/27 11:47:28;;;;;;;9.18;0.80;;;;;;;30.04;30.63;93072.91;1688282;83;21431;-62
2022/09/27 11:50:28;;;;;;;5.37;0.80;;;;;;;29.80;31.46;93072.69;1671958;84;20976;-63
2022/09/27 11:53:29;;;;;;;1.57;0.60;;;;;;;29.53;31.27;93061.77;1646115;84;21047;-62
2022/09/27 11:56:20;;;;;;;7.67;1.40;;;;;;;29.28;30.65;93072.13;1669439;85;21049;-63
2022/09/27 11:59:11;;;;;;;3.22;1.07;;;;;;;29.03;32.04;93065.55;1677870;84;21010;-62
2022/09/27 12:02:02;;;;;;;1.52;0.72;;;;;;;29.00;32.08;93058.93;1648571;85;21091;-63
2022/09/27 12:05:18;;;;;;;3.43;3.00;;;;;;;28.91;31.57;93056.23;1662437;83;21063;-66
2022/09/27 12:07:53;;;;;;;5.78;1.85;;;;;;;29.01;31.74;93063.24;1682063;83;22212;-65
2022/09/27 12:10:22;;;;;;;2.90;2.12;;;;;;;28.80;31.76;93060.39;1684664;84;21553;-62
2022/09/27 12:12:52;;;;;;;8.18;7.33;;;;;;;28.26;31.97;93062.31;1677441;85;21075;-66